Time;durP1;ratioP1;P1;durP2;ratioP2;P2;SDS_P1;SDS_P2;PMS_P1;PMS_P2;Temp;Humidity;BMP_temperature;BMP_pressure;BME280_temperature;BME280_humidity;BME280_pressure;Samples;Min_cycle;Max_cycle;Signal;HPM_P1;HPM_P2
2022/11/23 00:00:35;;;;;;;5.95;2.55;;;7.90;99.90;;;;;;4988819;28;20128;-74
2022/11/23 00:03:01;;;;;;;4.43;2.83;;;7.90;99.90;;;;;;4995912;28;20129;-74
2022/11/23 00:05:28;;;;;;;4.95;2.60;;;7.90;99.90;;;;;;4995557;28;20159;-75
2022/11/23 00:07:53;;;;;;;6.68;2.85;;;7.90;99.90;;;;;;4987149;28;20495;-74
2022/11/23 00:10:19;;;;;;;5.82;3.30;;;7.90;99.90;;;;;;4997920;28;20092;-74
2022/11/23 00:12:45;;;;;;;6.25;3.03;;;7.90;99.90;;;;;;4986744;28;20034;-74
2022/11/23 00:15:13;;;;;;;7.38;3.25;;;7.90;99.90;;;;;;4987891;28;20092;-74
2022/11/23 00:17:39;;;;;;;7.78;3.70;;;7.90;99.90;;;;;;5000417;28;20507;-74
2022/11/23 00:20:06;;;;;;;5.65;2.85;;;7.90;99.90;;;;;;5002000;28;20108;-74
2022/11/23 00:22:32;;;;;;;4.70;2.67;;;8.00;99.90;;;;;;5000652;28;20038;-74
2022/11/23 00:24:58;;;;;;;5.53;3.08;;;7.90;99.90;;;;;;4999269;28;20038;-74
2022/11/23 00:27:24;;;;;;;4.65;3.03;;;8.00;99.90;;;;;;4987598;28;20433;-74
2022/11/23 00:29:49;;;;;;;4.28;2.80;;;8.00;99.90;;;;;;5017753;28;20038;-75
2022/11/23 00:32:15;;;;;;;3.92;2.88;;;8.00;99.90;;;;;;4980230;28;20042;-74
2022/11/23 00:34:40;;;;;;;4.90;2.85;;;8.00;99.90;;;;;;4999729;28;20092;-74
2022/11/23 00:37:06;;;;;;;5.63;3.13;;;8.00;99.90;;;;;;4999971;28;20052;-74
2022/11/23 00:39:32;;;;;;;4.72;2.45;;;8.00;99.90;;;;;;4998335;28;20033;-74
2022/11/23 00:41:57;;;;;;;6.45;2.63;;;8.00;99.90;;;;;;4998301;28;20537;-74
2022/11/23 00:44:23;;;;;;;5.10;3.25;;;8.00;99.90;;;;;;4998094;28;20503;-74
2022/11/23 00:46:48;;;;;;;4.82;2.63;;;8.00;99.90;;;;;;5001247;28;20042;-74
2022/11/23 00:49:14;;;;;;;4.07;2.80;;;8.00;99.90;;;;;;5000759;28;20037;-74
2022/11/23 00:51:40;;;;;;;4.93;2.53;;;8.00;99.90;;;;;;4983480;28;20265;-75
2022/11/23 00:54:05;;;;;;;4.07;2.75;;;8.00;99.90;;;;;;4998064;28;21217;-74
2022/11/23 00:56:33;;;;;;;4.72;2.67;;;8.10;99.90;;;;;;4999948;28;20117;-74
2022/11/23 00:59:00;;;;;;;8.00;3.10;;;8.10;99.90;;;;;;4998753;28;20041;-75
2022/11/23 01:01:29;;;;;;;4.57;2.63;;;8.00;99.90;;;;;;5000844;28;20065;-75
2022/11/23 01:03:57;;;;;;;3.88;2.00;;;8.10;99.90;;;;;;5003229;28;20052;-75
2022/11/23 01:06:33;;;;;;;5.32;2.63;;;8.10;99.90;;;;;;4993904;28;20038;-75
2022/11/23 01:09:01;;;;;;;6.25;2.83;;;8.10;99.90;;;;;;5001866;28;20776;-75
2022/11/23 01:11:29;;;;;;;5.28;2.78;;;8.10;99.90;;;;;;5019419;28;20132;-75
2022/11/23 01:13:55;;;;;;;6.05;3.75;;;8.10;99.90;;;;;;4982691;28;20097;-75
2022/11/23 01:16:26;;;;;;;4.07;2.95;;;8.10;99.90;;;;;;5000205;28;20038;-75
2022/11/23 01:19:01;;;;;;;3.85;2.75;;;8.10;99.90;;;;;;5004165;28;20049;-75
2022/11/23 01:21:28;;;;;;;5.55;2.70;;;8.10;99.90;;;;;;5005301;28;20084;-75
2022/11/23 01:23:54;;;;;;;6.28;2.75;;;8.10;99.90;;;;;;5016601;28;20042;-74
2022/11/23 01:26:21;;;;;;;4.88;3.38;;;8.10;99.90;;;;;;4990137;28;20100;-75
2022/11/23 01:28:47;;;;;;;11.55;2.95;;;8.10;99.90;;;;;;5004696;28;20065;-75
2022/11/23 01:31:15;;;;;;;4.15;2.60;;;8.10;99.90;;;;;;5005607;28;20233;-75
2022/11/23 01:33:41;;;;;;;4.97;2.97;;;8.10;99.90;;;;;;4987136;28;20042;-75
2022/11/23 01:36:15;;;;;;;3.92;2.70;;;8.10;99.90;;;;;;5003729;28;20029;-75
2022/11/23 01:38:42;;;;;;;8.15;2.80;;;8.10;99.90;;;;;;5004443;28;20046;-75
2022/11/23 01:41:12;;;;;;;3.88;2.13;;;8.10;99.90;;;;;;5001621;28;20084;-75
2022/11/23 01:43:37;;;;;;;3.08;2.35;;;8.10;99.90;;;;;;5003418;28;20104;-75
2022/11/23 01:46:04;;;;;;;4.15;2.45;;;8.10;99.90;;;;;;5004785;28;20476;-75
2022/11/23 01:48:36;;;;;;;2.85;1.92;;;8.10;99.90;;;;;;4981326;28;20764;-75
2022/11/23 01:51:08;;;;;;;5.38;2.70;;;8.10;99.90;;;;;;5002921;28;20056;-75
2022/11/23 01:53:34;;;;;;;3.80;2.15;;;8.10;99.90;;;;;;5004473;28;20707;-75
2022/11/23 01:56:03;;;;;;;3.03;1.98;;;8.10;99.90;;;;;;5005759;28;20037;-75
2022/11/23 01:58:34;;;;;;;4.38;2.50;;;8.10;99.90;;;;;;5003289;28;20050;-75
2022/11/23 02:01:00;;;;;;;3.90;2.53;;;8.10;99.90;;;;;;4985369;28;20041;-75
2022/11/23 02:03:29;;;;;;;4.22;2.10;;;8.10;99.90;;;;;;5021991;28;20049;-75
2022/11/23 02:06:00;;;;;;;3.03;2.30;;;8.10;99.90;;;;;;5004635;28;20049;-75
2022/11/23 02:08:27;;;;;;;5.88;2.28;;;8.10;99.90;;;;;;5004824;28;20054;-75
2022/11/23 02:10:55;;;;;;;3.72;2.33;;;8.10;99.90;;;;;;5004368;28;20040;-75
2022/11/23 02:13:23;;;;;;;5.60;2.65;;;8.10;99.90;;;;;;5003303;28;20085;-75
2022/11/23 02:15:49;;;;;;;3.80;2.47;;;8.10;99.90;;;;;;5003860;28;20065;-75
2022/11/23 02:18:21;;;;;;;6.82;2.65;;;8.10;99.90;;;;;;4986434;28;20076;-75
2022/11/23 02:20:48;;;;;;;4.30;2.63;;;8.20;99.90;;;;;;5004336;28;20046;-75
2022/11/23 02:23:49;;;;;;;4.53;2.58;;;8.10;99.90;;;;;;5002855;28;20403;-75
2022/11/23 02:26:21;;;;;;;5.07;1.90;;;8.20;99.90;;;;;;5004658;28;20395;-75
2022/11/23 02:29:03;;;;;;;6.68;2.33;;;8.10;99.90;;;;;;5002393;28;20125;-75
2022/11/23 02:31:29;;;;;;;3.40;1.83;;;8.20;99.90;;;;;;5003415;28;20062;-75
2022/11/23 02:33:54;;;;;;;5.88;1.73;;;8.20;99.90;;;;;;5004921;28;20069;-75
2022/11/23 02:36:34;;;;;;;3.55;2.03;;;8.20;99.90;;;;;;5002827;28;20030;-75
2022/11/23 02:39:04;;;;;;;6.90;2.45;;;8.20;99.90;;;;;;5003241;28;20041;-75
2022/11/23 02:41:41;;;;;;;4.05;2.35;;;8.20;99.90;;;;;;5000966;28;20049;-75
2022/11/23 02:44:17;;;;;;;4.53;2.30;;;8.20;99.90;;;;;;4986684;28;20037;-75
2022/11/23 02:46:42;;;;;;;4.05;2.38;;;8.20;99.90;;;;;;5003276;28;20052;-75
2022/11/23 02:49:08;;;;;;;4.57;2.30;;;8.20;99.90;;;;;;5004038;28;20484;-75
2022/11/23 02:51:34;;;;;;;4.32;1.77;;;8.20;99.90;;;;;;5003579;28;20408;-75
2022/11/23 02:53:59;;;;;;;3.28;1.98;;;8.20;99.90;;;;;;4987509;28;20042;-75
2022/11/23 02:56:26;;;;;;;5.05;2.42;;;8.20;99.90;;;;;;5002155;28;20030;-75
2022/11/23 02:58:51;;;;;;;6.00;2.15;;;8.20;99.90;;;;;;5001546;28;20080;-75
2022/11/23 03:01:17;;;;;;;3.75;2.53;;;8.20;99.90;;;;;;5003681;28;20073;-75
2022/11/23 03:03:43;;;;;;;3.90;1.77;;;8.20;99.90;;;;;;5004437;28;20246;-75
2022/11/23 03:06:08;;;;;;;3.97;2.22;;;8.20;99.90;;;;;;4989292;28;20045;-75
2022/11/23 03:08:34;;;;;;;3.97;2.55;;;8.20;99.90;;;;;;5003898;28;20041;-75
2022/11/23 03:11:01;;;;;;;3.97;2.00;;;8.20;99.90;;;;;;5003094;28;20041;-75
2022/11/23 03:13:26;;;;;;;4.50;2.13;;;8.20;99.90;;;;;;5001158;28;20113;-75
2022/11/23 03:15:55;;;;;;;4.80;2.38;;;8.20;99.90;;;;;;5003876;28;20322;-75
2022/11/23 03:18:21;;;;;;;4.60;2.28;;;8.20;99.90;;;;;;5003505;28;20188;-74
2022/11/23 03:20:47;;;;;;;4.13;2.00;;;8.20;99.90;;;;;;5001355;28;20045;-75
2022/11/23 03:23:13;;;;;;;6.35;3.05;;;8.20;99.90;;;;;;5001184;28;20042;-75
2022/11/23 03:25:38;;;;;;;6.40;2.42;;;8.20;99.90;;;;;;5002836;28;20045;-75
2022/11/23 03:28:04;;;;;;;4.82;2.70;;;8.20;99.90;;;;;;4988050;28;20068;-75
2022/11/23 03:30:30;;;;;;;4.13;2.20;;;8.20;99.90;;;;;;4977588;28;20091;-75
2022/11/23 03:32:56;;;;;;;5.05;2.72;;;8.20;99.90;;;;;;5003731;28;20034;-75
2022/11/23 03:35:22;;;;;;;4.68;2.15;;;8.20;99.90;;;;;;4978455;28;20041;-75
2022/11/23 03:37:47;;;;;;;6.85;3.13;;;8.20;99.90;;;;;;5002067;28;20037;-75
2022/11/23 03:40:13;;;;;;;5.95;2.85;;;8.30;99.90;;;;;;4988017;28;20037;-75
2022/11/23 03:42:39;;;;;;;6.20;2.97;;;8.20;99.90;;;;;;5004007;28;20046;-75
2022/11/23 03:45:06;;;;;;;5.15;2.42;;;8.30;99.90;;;;;;5005456;28;20124;-75
2022/11/23 03:47:33;;;;;;;4.60;2.55;;;8.20;99.90;;;;;;5008426;28;20081;-75
2022/11/23 03:49:59;;;;;;;6.05;2.42;;;8.30;99.90;;;;;;5009766;28;20742;-75
2022/11/23 03:52:24;;;;;;;4.45;2.70;;;8.20;99.90;;;;;;4981517;28;20084;-75
2022/11/23 03:54:50;;;;;;;4.22;1.95;;;8.20;99.90;;;;;;5008225;28;20030;-75
2022/11/23 03:57:16;;;;;;;8.27;3.22;;;8.20;99.90;;;;;;5007183;28;20042;-75
2022/11/23 03:59:41;;;;;;;5.40;3.00;;;8.30;99.90;;;;;;5005538;28;20053;-75
2022/11/23 04:02:07;;;;;;;4.95;2.58;;;8.30;99.90;;;;;;5007687;28;20037;-75
2022/11/23 04:04:33;;;;;;;9.40;2.58;;;8.30;99.90;;;;;;5007896;28;20050;-75
2022/11/23 04:06:59;;;;;;;4.53;2.55;;;8.30;99.90;;;;;;5003859;28;20499;-75
2022/11/23 04:09:24;;;;;;;4.78;2.75;;;8.30;99.90;;;;;;5006544;28;20038;-75
2022/11/23 04:11:50;;;;;;;6.68;3.58;;;8.20;99.90;;;;;;5005479;28;20380;-75
2022/11/23 04:14:16;;;;;;;6.93;3.78;;;8.30;99.90;;;;;;5006722;28;20038;-75
2022/11/23 04:16:41;;;;;;;4.45;2.58;;;8.20;99.90;;;;;;5008108;28;20038;-75
2022/11/23 04:19:07;;;;;;;10.88;2.80;;;8.30;99.90;;;;;;5006531;28;20049;-75
2022/11/23 04:21:33;;;;;;;5.68;3.33;;;8.30;99.90;;;;;;5005200;28;20057;-75
2022/11/23 04:23:58;;;;;;;4.75;2.47;;;8.30;99.90;;;;;;5006512;28;20030;-75
2022/11/23 04:26:24;;;;;;;6.15;3.03;;;8.30;99.90;;;;;;5006128;28;20069;-75
2022/11/23 04:28:50;;;;;;;6.50;3.15;;;8.30;99.90;;;;;;5005511;28;20199;-75
2022/11/23 04:31:15;;;;;;;9.45;3.05;;;8.30;99.90;;;;;;5006213;28;20042;-75
2022/11/23 04:33:41;;;;;;;5.70;3.38;;;8.30;99.90;;;;;;5005249;28;20030;-75
2022/11/23 04:36:07;;;;;;;4.80;2.97;;;8.30;99.90;;;;;;5006026;28;20072;-75
2022/11/23 04:38:32;;;;;;;11.02;4.35;;;8.30;99.90;;;;;;4981396;28;20131;-75
2022/11/23 04:40:58;;;;;;;9.25;3.35;;;8.20;99.90;;;;;;5004638;28;20383;-75
2022/11/23 04:43:23;;;;;;;7.70;3.65;;;8.30;99.90;;;;;;5006305;28;20059;-75
2022/11/23 04:45:49;;;;;;;8.90;3.25;;;8.30;99.90;;;;;;4984028;28;20579;-75
2022/11/23 04:48:15;;;;;;;10.20;3.20;;;8.20;99.90;;;;;;5004835;28;20037;-75
2022/11/23 04:50:41;;;;;;;7.85;3.53;;;8.20;99.90;;;;;;5005687;28;20451;-75
2022/11/23 04:53:07;;;;;;;6.55;3.40;;;8.20;99.90;;;;;;5007599;28;20030;-75
2022/11/23 04:55:33;;;;;;;7.00;3.17;;;8.20;99.90;;;;;;4981182;28;20428;-75
2022/11/23 04:57:58;;;;;;;9.45;4.28;;;8.20;99.90;;;;;;5002651;28;20049;-75
2022/11/23 05:00:24;;;;;;;7.78;3.50;;;8.20;99.90;;;;;;5005340;28;20049;-75
2022/11/23 05:02:50;;;;;;;8.93;4.00;;;8.20;99.90;;;;;;5005630;28;20048;-75
2022/11/23 05:05:15;;;;;;;7.95;3.28;;;8.20;99.90;;;;;;5004176;28;20077;-75
2022/11/23 05:07:41;;;;;;;9.30;3.90;;;8.30;99.90;;;;;;5005263;28;20046;-75
2022/11/23 05:10:07;;;;;;;9.10;3.53;;;8.30;99.90;;;;;;5012505;28;20508;-75
2022/11/23 05:12:35;;;;;;;9.43;3.85;;;8.30;99.90;;;;;;5006117;28;20046;-74
2022/11/23 05:15:00;;;;;;;10.07;3.38;;;8.30;99.90;;;;;;5006090;28;20483;-75
2022/11/23 05:17:26;;;;;;;8.50;4.60;;;8.30;99.90;;;;;;5004326;28;20041;-75
2022/11/23 05:19:52;;;;;;;8.45;4.05;;;8.20;99.90;;;;;;5003611;28;20049;-75
2022/11/23 05:22:17;;;;;;;7.15;3.75;;;8.30;99.90;;;;;;5004925;28;20041;-75
2022/11/23 05:24:43;;;;;;;9.23;3.40;;;8.30;99.90;;;;;;5004893;28;20065;-75
2022/11/23 05:27:09;;;;;;;4.82;2.22;;;8.30;99.90;;;;;;5004851;28;20120;-75
2022/11/23 05:29:35;;;;;;;11.30;3.50;;;8.30;99.90;;;;;;5003520;28;20099;-75
2022/11/23 05:32:01;;;;;;;7.07;3.45;;;8.30;99.90;;;;;;5021058;28;20042;-75
2022/11/23 05:34:26;;;;;;;6.47;3.15;;;8.30;99.90;;;;;;5005735;28;20034;-75
2022/11/23 05:36:52;;;;;;;9.20;2.95;;;8.30;99.90;;;;;;5004741;28;20132;-75
2022/11/23 05:39:18;;;;;;;7.93;2.80;;;8.30;99.90;;;;;;5004917;28;20047;-75
2022/11/23 05:41:43;;;;;;;5.00;3.10;;;8.20;99.90;;;;;;5003528;28;20052;-75
2022/11/23 05:44:09;;;;;;;7.72;3.50;;;8.30;99.90;;;;;;5004600;28;20042;-75
2022/11/23 05:46:35;;;;;;;5.20;2.75;;;8.20;99.90;;;;;;5020836;28;20076;-75
2022/11/23 05:49:00;;;;;;;5.90;2.92;;;8.20;99.90;;;;;;5006238;28;20041;-75
2022/11/23 05:51:26;;;;;;;5.47;2.97;;;8.20;99.90;;;;;;4988698;28;20121;-74
2022/11/23 05:53:51;;;;;;;7.88;2.97;;;8.20;99.90;;;;;;5004768;28;20403;-75
2022/11/23 05:56:17;;;;;;;4.38;2.40;;;8.20;99.90;;;;;;5006166;28;20038;-75
2022/11/23 05:58:43;;;;;;;11.18;2.53;;;8.20;99.90;;;;;;5000627;28;20381;-75
2022/11/23 06:01:08;;;;;;;6.80;3.50;;;8.20;99.90;;;;;;5004090;28;20057;-75
2022/11/23 06:03:34;;;;;;;4.72;2.38;;;8.20;99.90;;;;;;4986434;28;20767;-75
2022/11/23 06:05:59;;;;;;;5.63;2.83;;;8.20;99.90;;;;;;5004666;28;20083;-75
2022/11/23 06:08:25;;;;;;;6.90;3.17;;;8.20;99.90;;;;;;5003847;28;20046;-75
2022/11/23 06:10:50;;;;;;;4.63;2.92;;;8.20;99.90;;;;;;4985820;28;20041;-75
2022/11/23 06:13:16;;;;;;;6.57;2.50;;;8.10;99.90;;;;;;5004023;28;20045;-75
2022/11/23 06:15:41;;;;;;;4.68;2.83;;;8.10;99.90;;;;;;5002572;28;20033;-73
2022/11/23 06:18:08;;;;;;;5.32;2.47;;;8.10;99.90;;;;;;5004540;28;20057;-73
2022/11/23 06:20:34;;;;;;;4.53;2.35;;;8.10;99.90;;;;;;5005090;28;20161;-73
2022/11/23 06:22:59;;;;;;;4.95;2.63;;;8.10;99.90;;;;;;4987186;28;20133;-73
2022/11/23 06:25:25;;;;;;;6.97;3.15;;;8.10;99.90;;;;;;5001487;28;20081;-73
2022/11/23 06:27:55;;;;;;;12.40;2.75;;;8.10;99.90;;;;;;5004159;28;20046;-73
2022/11/23 06:30:22;;;;;;;6.43;2.38;;;8.10;99.90;;;;;;5004831;28;20117;-73
2022/11/23 06:32:47;;;;;;;3.35;2.03;;;8.10;99.90;;;;;;5004876;28;20034;-73
2022/11/23 06:35:13;;;;;;;4.88;2.55;;;8.10;99.90;;;;;;5000107;28;20499;-73
2022/11/23 06:37:38;;;;;;;4.00;2.05;;;8.10;99.90;;;;;;5003684;28;20045;-73
2022/11/23 06:40:04;;;;;;;5.55;1.88;;;8.00;99.90;;;;;;5003508;28;20033;-73
2022/11/23 06:42:30;;;;;;;4.18;2.63;;;8.00;99.90;;;;;;5004039;28;20427;-72
2022/11/23 06:44:55;;;;;;;5.72;1.90;;;8.10;99.90;;;;;;5000912;28;20053;-73
2022/11/23 06:47:21;;;;;;;9.02;2.47;;;8.00;99.90;;;;;;5003178;28;20050;-73
2022/11/23 06:49:46;;;;;;;3.30;1.90;;;8.10;99.90;;;;;;4999272;28;20496;-72
2022/11/23 06:52:12;;;;;;;6.20;1.92;;;8.10;99.90;;;;;;5000466;28;20500;-73
2022/11/23 06:54:38;;;;;;;8.45;2.35;;;8.10;99.90;;;;;;4999265;28;20076;-72
2022/11/23 06:57:07;;;;;;;4.32;2.15;;;8.10;99.90;;;;;;4995577;28;20038;-72
2022/11/23 06:59:33;;;;;;;5.63;1.83;;;8.00;99.90;;;;;;5012097;28;20050;-72
2022/11/23 07:01:58;;;;;;;7.35;1.77;;;8.00;99.90;;;;;;4998604;28;20037;-73
2022/11/23 07:04:24;;;;;;;4.43;1.98;;;8.00;99.90;;;;;;4998666;28;20029;-73
2022/11/23 07:06:49;;;;;;;3.25;1.55;;;8.00;99.90;;;;;;5000269;28;20133;-72
2022/11/23 07:09:15;;;;;;;3.25;2.05;;;8.00;99.90;;;;;;5014832;28;20065;-72
2022/11/23 07:11:41;;;;;;;4.53;1.73;;;8.00;99.90;;;;;;5000834;28;20061;-73
2022/11/23 07:14:06;;;;;;;12.43;2.08;;;8.00;99.90;;;;;;4996488;28;20037;-73
2022/11/23 07:16:32;;;;;;;2.83;1.45;;;8.00;99.90;;;;;;4995085;28;20038;-73
2022/11/23 07:18:58;;;;;;;4.18;1.98;;;8.00;99.90;;;;;;4993581;28;20057;-72
2022/11/23 07:21:23;;;;;;;3.13;1.13;;;8.00;99.90;;;;;;4993921;28;20433;-72
2022/11/23 07:23:49;;;;;;;3.20;1.40;;;7.90;99.90;;;;;;4995658;28;20041;-72
2022/11/23 07:26:14;;;;;;;6.63;1.73;;;8.00;99.90;;;;;;4976476;28;20444;-72
2022/11/23 07:28:40;;;;;;;2.15;1.15;;;8.00;99.90;;;;;;4979451;28;20034;-74
2022/11/23 07:31:06;;;;;;;1.85;0.98;;;8.00;99.90;;;;;;5000849;28;20034;-75
2022/11/23 07:33:31;;;;;;;6.32;1.10;;;8.00;99.90;;;;;;4998886;28;20095;-74
2022/11/23 07:36:00;;;;;;;4.20;2.17;;;8.00;99.90;;;;;;5001289;28;20516;-74
2022/11/23 07:38:26;;;;;;;2.47;1.33;;;8.00;99.90;;;;;;4995808;28;20514;-75
2022/11/23 07:40:51;;;;;;;3.22;1.42;;;8.00;99.90;;;;;;4994719;28;20046;-74
2022/11/23 07:43:17;;;;;;;2.42;1.35;;;8.00;99.90;;;;;;4987721;28;20112;-74
2022/11/23 07:45:43;;;;;;;2.53;1.48;;;8.00;99.90;;;;;;4980333;28;20109;-74
2022/11/23 07:48:09;;;;;;;3.78;1.60;;;8.00;99.90;;;;;;4992546;28;20053;-74
2022/11/23 07:50:36;;;;;;;3.22;1.42;;;8.00;99.90;;;;;;4990397;28;20042;-74
2022/11/23 07:53:03;;;;;;;7.47;1.42;;;8.00;99.90;;;;;;4994686;28;20038;-75
2022/11/23 07:55:30;;;;;;;1.67;0.95;;;8.10;99.90;;;;;;4991961;28;20034;-75
2022/11/23 07:57:56;;;;;;;4.97;1.30;;;8.10;99.90;;;;;;4996145;28;20510;-75
2022/11/23 08:00:22;;;;;;;7.05;1.83;;;8.10;99.90;;;;;;4990616;28;20128;-75
2022/11/23 08:02:48;;;;;;;4.88;1.67;;;8.00;99.90;;;;;;4991093;28;20046;-73
2022/11/23 08:05:14;;;;;;;6.43;1.67;;;8.10;99.90;;;;;;4994295;28;20049;-72
2022/11/23 08:07:40;;;;;;;2.00;1.02;;;8.10;99.90;;;;;;4990790;28;20125;-72
2022/11/23 08:10:06;;;;;;;2.45;1.00;;;8.10;99.90;;;;;;4992388;28;20129;-73
2022/11/23 08:12:31;;;;;;;6.78;1.95;;;8.10;99.90;;;;;;4996894;28;20058;-73
2022/11/23 08:14:57;;;;;;;2.42;1.30;;;8.10;99.90;;;;;;4994878;28;20030;-73
2022/11/23 08:17:23;;;;;;;4.18;1.30;;;8.10;99.90;;;;;;5005428;28;20038;-73
2022/11/23 08:19:48;;;;;;;5.28;1.10;;;8.20;99.90;;;;;;5007521;28;20058;-73
2022/11/23 08:22:14;;;;;;;3.45;1.83;;;8.20;99.90;;;;;;5007300;28;20054;-73
2022/11/23 08:24:39;;;;;;;5.63;1.25;;;8.20;99.90;;;;;;5006405;28;20095;-73
2022/11/23 08:27:05;;;;;;;3.38;1.10;;;8.20;99.90;;;;;;5007054;28;20061;-73
2022/11/23 08:29:31;;;;;;;4.85;1.38;;;8.20;99.90;;;;;;5008231;28;20037;-73
2022/11/23 08:31:56;;;;;;;3.55;1.48;;;8.20;99.90;;;;;;5007503;28;20133;-73
2022/11/23 08:34:22;;;;;;;3.17;1.30;;;8.20;99.90;;;;;;4998254;28;20514;-73
2022/11/23 08:36:47;;;;;;;2.05;1.08;;;8.30;99.90;;;;;;4986161;28;20038;-73
2022/11/23 08:39:14;;;;;;;3.08;1.15;;;8.30;99.90;;;;;;4998198;28;20038;-73
2022/11/23 08:41:40;;;;;;;2.13;0.90;;;8.30;99.90;;;;;;5018034;28;20087;-73
2022/11/23 08:44:10;;;;;;;2.80;1.13;;;8.30;99.90;;;;;;4993445;28;20515;-72
2022/11/23 08:46:36;;;;;;;2.88;1.25;;;8.30;99.90;;;;;;4994689;28;20415;-73
2022/11/23 08:49:02;;;;;;;5.32;1.08;;;8.30;99.90;;;;;;4996296;28;20041;-73
2022/11/23 08:51:28;;;;;;;2.92;1.38;;;8.40;99.90;;;;;;4993819;28;20049;-73
2022/11/23 08:53:53;;;;;;;2.88;1.20;;;8.40;99.90;;;;;;4996173;28;20380;-72
2022/11/23 08:56:19;;;;;;;3.88;1.15;;;8.40;99.90;;;;;;4997191;28;20038;-73
2022/11/23 08:58:45;;;;;;;3.00;1.40;;;8.30;99.90;;;;;;4997456;28;20189;-73
2022/11/23 09:01:16;;;;;;;6.93;1.60;;;8.40;99.90;;;;;;5000226;28;20385;-72
2022/11/23 09:03:41;;;;;;;2.90;0.93;;;8.40;99.90;;;;;;4993775;28;20042;-72
2022/11/23 09:06:08;;;;;;;1.77;1.05;;;8.40;99.90;;;;;;4998746;28;20440;-72
2022/11/23 09:08:34;;;;;;;8.05;1.30;;;8.50;99.90;;;;;;4995561;28;20420;-73
2022/11/23 09:11:01;;;;;;;1.92;0.88;;;8.50;99.90;;;;;;4997932;28;20042;-73
2022/11/23 09:13:27;;;;;;;4.05;1.10;;;8.50;99.90;;;;;;5000901;28;20033;-72
2022/11/23 09:16:00;;;;;;;3.88;1.38;;;8.50;99.90;;;;;;5001012;28;20140;-73
2022/11/23 09:18:26;;;;;;;1.52;0.80;;;8.40;99.90;;;;;;4997742;28;20042;-72
2022/11/23 09:20:52;;;;;;;7.40;1.73;;;8.50;99.90;;;;;;5002887;28;20058;-73
2022/11/23 09:23:18;;;;;;;2.65;0.93;;;8.50;99.90;;;;;;5004236;28;20464;-72
2022/11/23 09:25:47;;;;;;;10.80;1.45;;;8.50;99.90;;;;;;4994935;28;20072;-72
2022/11/23 09:28:13;;;;;;;3.83;1.25;;;8.50;99.90;;;;;;4994903;28;20045;-72
2022/11/23 09:30:40;;;;;;;3.55;1.20;;;8.50;99.90;;;;;;4994592;28;20100;-73
2022/11/23 09:33:07;;;;;;;7.60;1.80;;;8.60;99.90;;;;;;4987040;28;20136;-72
2022/11/23 09:35:33;;;;;;;7.65;1.55;;;8.60;99.90;;;;;;5004824;28;20115;-73
2022/11/23 09:37:59;;;;;;;3.00;1.40;;;8.60;99.90;;;;;;4995554;28;20050;-72
2022/11/23 09:40:30;;;;;;;2.15;1.02;;;8.60;99.90;;;;;;5007422;28;20042;-73
2022/11/23 09:43:30;;;;;;;9.63;1.60;;;8.60;99.90;;;;;;5003911;28;20049;-72
2022/11/23 09:46:03;;;;;;;5.20;1.80;;;8.60;99.90;;;;;;5018001;28;20038;-73
2022/11/23 09:48:54;;;;;;;6.15;1.42;;;8.60;99.90;;;;;;4997046;28;20038;-73
2022/11/23 09:51:22;;;;;;;1.80;1.02;;;8.60;99.90;;;;;;5018428;28;20042;-72
2022/11/23 09:54:22;;;;;;;7.63;1.13;;;8.70;99.90;;;;;;5018484;28;20392;-72
2022/11/23 09:56:50;;;;;;;1.77;0.82;;;8.70;99.90;;;;;;5002764;28;20038;-72
2022/11/23 09:59:34;;;;;;;2.10;1.10;;;8.60;99.90;;;;;;5000279;28;20038;-72
2022/11/23 10:02:00;;;;;;;3.03;1.20;;;8.70;99.90;;;;;;5020208;28;20045;-72
2022/11/23 10:04:32;;;;;;;4.35;0.85;;;8.70;99.90;;;;;;5012005;28;20038;-72
2022/11/23 10:07:16;;;;;;;9.07;1.52;;;8.70;99.90;;;;;;5009341;28;20112;-72
2022/11/23 10:10:14;;;;;;;8.68;1.25;;;8.70;99.90;;;;;;5004831;28;20469;-72
2022/11/23 10:13:10;;;;;;;1.42;0.70;;;8.70;99.90;;;;;;4972496;28;20055;-72
2022/11/23 10:15:38;;;;;;;;;;;8.70;99.90;;;;;;5008961;28;20046;-72
2022/11/23 10:18:13;;;;;;;1.67;0.70;;;8.70;99.90;;;;;;5010536;28;19924;-72
2022/11/23 10:20:50;;;;;;;2.30;0.93;;;8.70;99.90;;;;;;5010295;28;20050;-71
2022/11/23 10:23:41;;;;;;;9.32;1.92;;;8.70;99.90;;;;;;5003202;28;20041;-71
2022/11/23 10:26:14;;;;;;;4.93;0.60;;;8.70;99.90;;;;;;5008333;28;20041;-71
2022/11/23 10:28:39;;;;;;;1.27;0.80;;;8.80;99.90;;;;;;5007959;28;20103;-71
2022/11/23 10:31:18;;;;;;;6.28;1.02;;;8.80;99.90;;;;;;5000666;28;20499;-71
2022/11/23 10:33:59;;;;;;;1.38;0.80;;;8.80;99.90;;;;;;5013786;28;20056;-72
2022/11/23 10:36:25;;;;;;;5.22;1.13;;;8.80;99.90;;;;;;4999665;28;20038;-72
2022/11/23 10:38:59;;;;;;;3.95;0.90;;;8.80;99.90;;;;;;5000786;28;20046;-71
2022/11/23 10:41:25;;;;;;;2.75;0.75;;;8.70;99.90;;;;;;5000644;28;20113;-72
2022/11/23 10:44:27;;;;;;;3.53;0.85;;;8.80;99.90;;;;;;4998632;28;20083;-71
2022/11/23 10:46:53;;;;;;;5.63;1.20;;;8.80;99.90;;;;;;5000168;28;20065;-71
2022/11/23 10:49:23;;;;;;;1.50;0.82;;;8.80;99.90;;;;;;5000372;28;20400;-72
2022/11/23 10:52:26;;;;;;;2.47;0.75;;;8.80;99.90;;;;;;4997876;28;20347;-71
2022/11/23 10:54:54;;;;;;;7.88;1.02;;;8.80;99.90;;;;;;4996608;28;20061;-71
2022/11/23 10:57:43;;;;;;;5.25;0.80;;;8.80;99.90;;;;;;4994491;28;20503;-71
2022/11/23 11:00:14;;;;;;;5.45;0.82;;;8.90;99.90;;;;;;4994541;28;20066;-71
2022/11/23 11:02:43;;;;;;;2.03;0.50;;;8.90;99.90;;;;;;4993595;28;20054;-72
2022/11/23 11:05:24;;;;;;;1.48;0.65;;;8.90;99.90;;;;;;4979200;28;20500;-72
2022/11/23 11:07:51;;;;;;;3.00;0.70;;;8.90;99.90;;;;;;5018004;28;20407;-71
2022/11/23 11:10:33;;;;;;;3.20;0.50;;;9.00;99.90;;;;;;4995213;28;20795;-71
2022/11/23 11:12:58;;;;;;;2.17;0.90;;;9.00;99.90;;;;;;4994087;28;20129;-71
2022/11/23 11:15:24;;;;;;;0.90;0.40;;;9.00;99.90;;;;;;4993096;28;20030;-71
2022/11/23 11:17:58;;;;;;;2.40;0.75;;;9.00;99.90;;;;;;4993587;28;20476;-71
2022/11/23 11:20:26;;;;;;;1.92;0.73;;;9.10;99.90;;;;;;5014209;28;20053;-71
2022/11/23 11:22:53;;;;;;;3.33;1.48;;;9.10;99.90;;;;;;4988433;28;20133;-71
2022/11/23 11:25:37;;;;;;;2.35;0.90;;;9.20;99.90;;;;;;4992060;28;20038;-71
2022/11/23 11:28:14;;;;;;;4.07;0.90;;;9.20;99.90;;;;;;4995955;28;20436;-71
2022/11/23 11:30:50;;;;;;;2.28;1.10;;;9.20;99.90;;;;;;5015982;28;20040;-71
2022/11/23 11:33:26;;;;;;;7.25;0.68;;;9.10;99.90;;;;;;4996360;28;20038;-71
2022/11/23 11:35:54;;;;;;;1.13;0.70;;;9.10;99.90;;;;;;4974816;28;20071;-71
2022/11/23 11:38:28;;;;;;;2.83;1.05;;;9.10;99.90;;;;;;5002443;28;20499;-71
2022/11/23 11:40:57;;;;;;;3.47;0.55;;;9.10;99.90;;;;;;4998878;28;20771;-71
2022/11/23 11:43:47;;;;;;;2.58;0.70;;;9.20;99.90;;;;;;4995166;28;20128;-71
2022/11/23 11:46:15;;;;;;;2.65;0.90;;;9.20;99.90;;;;;;4995188;28;20061;-71
2022/11/23 11:48:53;;;;;;;9.35;0.95;;;9.20;99.90;;;;;;4981309;28;20073;-71
2022/11/23 11:51:24;;;;;;;1.52;0.40;;;9.20;99.90;;;;;;4998641;28;20053;-71
2022/11/23 11:54:20;;;;;;;3.70;0.75;;;9.20;99.90;;;;;;4995052;28;20076;-71
2022/11/23 11:56:51;;;;;;;0.85;0.43;;;9.20;99.90;;;;;;4994095;28;20046;-71
2022/11/23 11:59:29;;;;;;;6.95;0.85;;;9.20;99.90;;;;;;4988267;28;20303;-71
2022/11/23 12:01:55;;;;;;;4.18;0.88;;;9.20;99.90;;;;;;4988771;28;20033;-71
2022/11/23 12:04:38;;;;;;;3.90;0.70;;;9.20;99.90;;;;;;5000572;28;20033;-71
2022/11/23 12:07:10;;;;;;;3.47;0.75;;;9.30;99.90;;;;;;4986481;28;20042;-71
2022/11/23 12:09:39;;;;;;;0.80;0.43;;;9.30;99.90;;;;;;5002795;28;20085;-73
2022/11/23 12:12:14;;;;;;;2.53;0.50;;;9.30;99.90;;;;;;5003144;28;20046;-71
2022/11/23 12:14:40;;;;;;;5.10;0.43;;;9.30;99.90;;;;;;4983144;28;20121;-71
2022/11/23 12:17:44;;;;;;;4.32;0.98;;;9.30;99.90;;;;;;4999092;28;20038;-71
2022/11/23 12:20:29;;;;;;;4.10;0.82;;;9.30;99.90;;;;;;4999822;28;20058;-71
2022/11/23 12:23:20;;;;;;;7.22;0.77;;;9.30;99.90;;;;;;4998214;28;20046;-71
2022/11/23 12:26:20;;;;;;;8.43;0.98;;;9.40;99.90;;;;;;4995544;28;20038;-71
2022/11/23 12:29:25;;;;;;;3.88;0.63;;;9.40;99.90;;;;;;4996954;28;20419;-71
2022/11/23 12:32:01;;;;;;;4.35;0.68;;;9.40;99.90;;;;;;5001329;28;20345;-71
2022/11/23 12:34:57;;;;;;;6.90;0.68;;;9.40;99.90;;;;;;5000720;28;20507;-71
2022/11/23 12:37:42;;;;;;;2.55;0.93;;;9.40;99.90;;;;;;4978947;28;20808;-71
2022/11/23 12:40:30;;;;;;;4.10;0.50;;;9.50;99.90;;;;;;5017455;28;20060;-71
2022/11/23 12:43:22;;;;;;;2.53;0.52;;;9.40;99.90;;;;;;4976815;28;20135;-71
2022/11/23 12:46:25;;;;;;;1.77;0.77;;;9.40;99.90;;;;;;4958633;28;20609;-71
2022/11/23 12:49:20;;;;;;;8.77;0.88;;;9.40;99.90;;;;;;5006080;28;20123;-71
2022/11/23 12:52:34;;;;;;;4.53;0.45;;;9.40;99.90;;;;;;4998444;28;20487;-71
2022/11/23 12:55:06;;;;;;;4.68;0.60;;;9.40;99.90;;;;;;5000625;28;20038;-71
2022/11/23 12:57:45;;;;;;;3.53;0.30;;;9.40;99.90;;;;;;4974827;28;20042;-71
2022/11/23 13:00:19;;;;;;;0.57;0.30;;;9.40;99.90;;;;;;4998194;28;20042;-71
2022/11/23 13:02:57;;;;;;;3.33;0.77;;;9.40;99.90;;;;;;5000128;28;20037;-71
2022/11/23 13:05:41;;;;;;;3.75;0.95;;;9.40;99.90;;;;;;4999624;28;20560;-71
2022/11/23 13:08:26;;;;;;;0.75;0.40;;;9.50;99.90;;;;;;4999228;28;20467;-71
2022/11/23 13:11:17;;;;;;;2.17;0.40;;;9.40;99.90;;;;;;5000470;28;20093;-71